首页
METAR-TAF:

METAR-TAF

机场 :

拉巴特-塞拉国际机场

拉巴特, 摩洛哥

纬度: 34-03N, 经度: 006-46W, 海拔: 84米

当前天气观测

该预报发布于31分钟前的16:30 UTC
风速11节,风向西南
温度 16°C
湿度 72%
气压 1011 hPa
能見度: 5000
散云层高于4000英尺
多云层高于10000英尺
小雨

METAR: GMME 201630Z 22011KT 5000 -RA SCT040 BKN100 16/11 Q1011 NOSIG

时间: 18:01 (17:01 UTC)

预报

该预报发布于6小时和1分钟前的11:00 UTC
预报有效从20日的 12点(UTC)到 21日的 18点(UTC)
风速10节,风向西南,有时为20节阵风
能見度: 8000
散云层高于2000英尺
多云层高于8000英尺
短暂存在
从 20日的 13点(UTC)到 20日的 21点(UTC)
多云层高于1300英尺
多云层高于1600英尺
散云层高于2600英尺, 塔状积云.
短暂存在
从 20日的 15点(UTC)到 20日的 20点(UTC)
能見度: 4000
多云层高于1000英尺
多云层高于1600英尺
少量云层高于2600英尺, 积雨云.
阵雨
成为
从 21日的 11点(UTC)到 21日的 14点(UTC)

TAF: GMME 201100Z 2012/2118 22010G20KT 8000 SCT020 BKN080 TEMPO 2013/2021 RA BKN013 BKN016 SCT026TCU TEMPO 2015/2020 4000 SHRA BKN010 BKN016 FEW026CB BECMG 2111/2114 RA

超过4000个机场的气象观测和天气预报(METAR&TAF报告)。

可查询的气象台以黄色和红色小点在地图上表示。

将鼠标移到小点上方,可查看气象台名称。

然后点击查看天气观测和预报。

如需切换地图:点击带黑十字的绿色按钮放大地图;点击带横线的绿色按钮缩小地图;或者点击绿色箭头查看邻近地区的地图。


METAR-TAF: